Leona, Kansas
Current Conditions -  °F | °C
As of 5:39 PM on Saturday 22 Nov 2014 (Local Time) from KFNB Reporting Station
Overcast Overcast  
Wind Chill: 57°   Ceiling: 2500
Heat Index: 57°   Visibility: 10mi
Dew Point: 55°   Wind: 18mph
Humidity: 93%   Direction: 170°S
Pressure: 29.67"   Gusts: 26mph
Location:  39.8103°N, 95.373°W
Report Text: KFNB 222339Z AUTO 17016G23KT 10SM SCT006 SCT011 OVC025 14/13 A2967 RMK AO2 T01390128
Loading
Personal Weather Stations






























Interactive Weather Map New forecast layout! Learn more

10-Day Weather Forecast

Advertisements
Track Severe Weather on mobile